Time;durP1;ratioP1;P1;durP2;ratioP2;P2;SDS_P1;SDS_P2;PMS_P1;PMS_P2;Temp;Humidity;BMP_temperature;BMP_pressure;BME280_temperature;BME280_humidity;BME280_pressure;Samples;Min_cycle;Max_cycle;Signal;HPM_P1;HPM_P2
2021/04/21 00:00:53;;;;;;;14.48;9.68;;;8.60;99.70;;;;;;4995482;28;20038;-82
2021/04/21 00:03:19;;;;;;;12.00;9.40;;;8.60;99.90;;;;;;4987685;28;21186;-82
2021/04/21 00:05:48;;;;;;;15.73;9.52;;;11.00;99.90;;;;;;4996597;28;20034;-82
2021/04/21 00:08:15;;;;;;;13.63;9.23;;;9.90;99.90;;;;;;4989688;28;20089;-83
2021/04/21 00:10:41;;;;;;;14.70;9.30;;;8.50;99.90;;;;;;4992887;28;20094;-81
2021/04/21 00:13:09;;;;;;;13.27;8.88;;;8.50;99.90;;;;;;4995404;28;20094;-82
2021/04/21 00:15:34;;;;;;;12.75;8.98;;;8.40;99.90;;;;;;4987332;28;20035;-77
2021/04/21 00:18:04;;;;;;;11.75;9.05;;;10.80;99.90;;;;;;4988017;28;20046;-77
2021/04/21 00:20:31;;;;;;;13.57;9.07;;;8.40;99.90;;;;;;4994453;28;20033;-80
2021/04/21 00:23:01;;;;;;;12.00;8.52;;;8.40;99.90;;;;;;4991749;28;20030;-77
2021/04/21 00:25:30;;;;;;;12.57;8.18;;;9.60;99.90;;;;;;4991628;28;20409;-80
2021/04/21 00:27:56;;;;;;;13.05;8.65;;;9.50;99.90;;;;;;4986090;28;20037;-81
2021/04/21 00:30:28;;;;;;;12.13;8.57;;;9.40;99.90;;;;;;4991878;28;20023;-77
2021/04/21 00:32:56;;;;;;;13.27;9.35;;;9.50;99.90;;;;;;4993730;28;20040;-81
2021/04/21 00:35:25;;;;;;;12.88;9.20;;;8.10;99.90;;;;;;4998947;28;20033;-80
2021/04/21 00:37:58;;;;;;;13.07;8.38;;;9.40;99.90;;;;;;4995493;28;20081;-81
2021/04/21 00:40:39;;;;;;;13.32;9.30;;;9.20;99.90;;;;;;4994577;28;20023;-79
2021/04/21 00:43:25;;;;;;;12.00;8.52;;;8.10;99.90;;;;;;4985286;28;20106;-84
2021/04/21 00:46:00;;;;;;;15.02;8.88;;;8.10;99.90;;;;;;4988380;28;20035;-82
2021/04/21 00:48:30;;;;;;;15.68;8.45;;;9.30;99.90;;;;;;4989290;28;20388;-78
2021/04/21 00:51:00;;;;;;;12.38;9.25;;;8.00;99.90;;;;;;4991064;28;20595;-82
2021/04/21 00:53:40;;;;;;;13.43;9.07;;;9.30;99.90;;;;;;4994776;28;20034;-82
2021/04/21 00:56:44;;;;;;;13.23;9.00;;;7.90;99.90;;;;;;4993114;28;20062;-83
2021/04/21 00:59:24;;;;;;;12.45;9.05;;;7.90;99.90;;;;;;4991668;28;20029;-80
2021/04/21 01:01:51;;;;;;;14.70;9.07;;;9.40;99.90;;;;;;4993542;28;20030;-82
2021/04/21 01:04:18;;;;;;;14.90;9.63;;;8.80;99.90;;;;;;4993912;28;20031;-80
2021/04/21 01:06:46;;;;;;;16.65;9.75;;;8.80;99.90;;;;;;5003734;28;20130;-81
2021/04/21 01:09:17;;;;;;;16.67;9.43;;;7.80;99.90;;;;;;4987696;28;20026;-82
2021/04/21 01:11:48;;;;;;;;;;;7.80;99.90;;;;;;5005438;28;20030;-83
2021/04/21 01:14:17;;;;;;;11.60;8.68;;;7.70;99.90;;;;;;4994725;28;19919;-83
2021/04/21 01:16:47;;;;;;;11.75;9.20;;;10.40;99.90;;;;;;4995435;28;20038;-80
2021/04/21 01:19:30;;;;;;;11.52;8.38;;;9.70;99.90;;;;;;5010584;28;20026;-83
2021/04/21 01:22:10;;;;;;;11.50;8.15;;;7.70;99.90;;;;;;4984466;28;20493;-83
2021/04/21 01:24:35;;;;;;;10.48;7.53;;;7.70;99.90;;;;;;4996605;28;20023;-80
2021/04/21 01:27:17;;;;;;;12.32;8.13;;;7.70;99.90;;;;;;4996582;28;20093;-83
2021/04/21 01:29:47;;;;;;;11.35;8.40;;;7.70;99.90;;;;;;4999388;28;20049;-81
2021/04/21 01:32:20;;;;;;;12.27;8.45;;;7.60;99.90;;;;;;5001641;28;20097;-81
2021/04/21 01:34:48;;;;;;;13.13;8.32;;;7.60;99.90;;;;;;4994119;28;20034;-81
2021/04/21 01:37:20;;;;;;;12.95;9.05;;;8.80;99.90;;;;;;4987994;28;20034;-80
2021/04/21 01:39:56;;;;;;;11.15;8.15;;;7.40;99.90;;;;;;4992739;28;20037;-82
2021/04/21 01:42:26;;;;;;;11.00;8.15;;;7.50;99.90;;;;;;4995131;28;20077;-81
2021/04/21 01:44:55;;;;;;;12.05;8.70;;;8.20;99.90;;;;;;4997430;28;20477;-79
2021/04/21 01:47:22;;;;;;;12.63;8.05;;;7.30;99.90;;;;;;4993030;28;20097;-82
2021/04/21 01:49:56;;;;;;;11.10;8.18;;;7.30;99.90;;;;;;4985733;28;20053;-80
2021/04/21 01:52:24;;;;;;;13.75;8.82;;;7.40;99.90;;;;;;5008992;28;20037;-77
2021/04/21 01:54:55;;;;;;;14.40;9.02;;;7.40;99.90;;;;;;4984170;28;20045;-79
2021/04/21 01:57:27;;;;;;;;;;;9.40;99.90;;;;;;4990464;28;20034;-81
2021/04/21 02:00:17;;;;;;;11.80;8.52;;;8.30;99.90;;;;;;4993022;28;19914;-81
2021/04/21 02:02:52;;;;;;;13.68;8.93;;;7.40;99.90;;;;;;4978982;28;20034;-81
2021/04/21 02:05:29;;;;;;;11.88;8.57;;;9.50;99.90;;;;;;4988628;28;20046;-78
2021/04/21 02:08:19;;;;;;;13.13;9.13;;;7.30;99.90;;;;;;4984477;28;20666;-78
2021/04/21 02:10:56;;;;;;;12.73;8.57;;;7.30;99.90;;;;;;4994741;28;20026;-82
2021/04/21 02:13:50;;;;;;;11.43;8.38;;;7.20;99.90;;;;;;4995922;28;20053;-81
2021/04/21 02:16:23;;;;;;;13.70;8.70;;;7.10;99.90;;;;;;4991920;28;20069;-81
2021/04/21 02:19:19;;;;;;;11.77;8.32;;;7.10;99.90;;;;;;4993872;28;20034;-81
2021/04/21 02:21:56;;;;;;;11.20;7.82;;;7.10;99.90;;;;;;4993857;28;20034;-83
2021/04/21 02:24:43;;;;;;;13.77;8.80;;;7.10;99.90;;;;;;4991055;28;20493;-79
2021/04/21 02:27:26;;;;;;;13.95;9.07;;;7.10;99.90;;;;;;4996246;28;20035;-80
2021/04/21 02:30:31;;;;;;;12.98;8.27;;;7.00;99.90;;;;;;4987771;28;20038;-78
2021/04/21 02:33:11;;;;;;;13.48;8.85;;;7.00;99.90;;;;;;4987012;28;20034;-84
2021/04/21 02:35:46;;;;;;;11.30;8.38;;;6.80;99.90;;;;;;4994232;28;20034;-83
2021/04/21 02:38:18;;;;;;;11.40;8.63;;;7.70;99.90;;;;;;4991781;28;20501;-81
2021/04/21 02:41:11;;;;;;;12.20;8.65;;;6.90;99.90;;;;;;5006395;28;20038;-80
2021/04/21 02:44:04;;;;;;;13.60;8.32;;;6.90;99.90;;;;;;4995875;28;20046;-80
2021/04/21 02:46:59;;;;;;;13.20;8.38;;;6.90;99.90;;;;;;4994183;28;20030;-81
2021/04/21 02:49:45;;;;;;;11.88;7.63;;;6.90;99.90;;;;;;4993756;28;20030;-80
2021/04/21 02:52:49;;;;;;;10.60;7.63;;;6.90;99.90;;;;;;4987083;28;20022;-81
2021/04/21 02:55:26;;;;;;;17.20;8.68;;;6.80;99.90;;;;;;4994448;28;20035;-82
2021/04/21 02:58:13;;;;;;;11.77;7.82;;;6.80;99.90;;;;;;5005190;28;20062;-81
2021/04/21 03:00:42;;;;;;;11.15;7.90;;;6.80;99.90;;;;;;4989612;28;20092;-78
2021/04/21 03:03:34;;;;;;;12.77;8.68;;;9.50;99.90;;;;;;4989680;28;20046;-80
2021/04/21 03:06:05;;;;;;;11.35;7.95;;;6.80;99.90;;;;;;4990843;28;20026;-80
2021/04/21 03:08:40;;;;;;;11.50;8.30;;;7.00;99.90;;;;;;4982713;28;20022;-80
2021/04/21 03:11:27;;;;;;;12.50;8.27;;;6.80;99.90;;;;;;4994400;28;20062;-84
2021/04/21 03:14:21;;;;;;;12.48;8.35;;;6.60;99.90;;;;;;4988025;28;20141;-79
2021/04/21 03:16:50;;;;;;;11.48;8.50;;;6.70;99.90;;;;;;4992986;28;20022;-80
2021/04/21 03:19:21;;;;;;;12.82;8.27;;;8.60;99.90;;;;;;4994370;28;20069;-79
2021/04/21 03:21:52;;;;;;;12.95;8.50;;;7.70;99.90;;;;;;4993771;28;20030;-80
2021/04/21 03:24:26;;;;;;;13.20;8.70;;;6.60;99.90;;;;;;5006412;28;20121;-82
2021/04/21 03:26:58;;;;;;;14.20;8.90;;;6.70;99.90;;;;;;4993967;28;20037;-81
2021/04/21 03:29:37;;;;;;;12.50;8.30;;;6.60;99.90;;;;;;4991097;28;20037;-80
2021/04/21 03:32:10;;;;;;;13.00;9.63;;;6.40;99.90;;;;;;4987785;28;20039;-83
2021/04/21 03:34:37;;;;;;;14.90;9.10;;;6.50;99.90;;;;;;4988962;28;20506;-80
2021/04/21 03:37:20;;;;;;;12.70;8.70;;;6.50;99.90;;;;;;4989241;28;20033;-78
2021/04/21 03:39:45;;;;;;;12.98;8.13;;;6.30;99.90;;;;;;4984475;28;20046;-80
2021/04/21 03:42:11;;;;;;;14.00;8.77;;;;;;;;;;4993638;28;20089;-80
2021/04/21 03:44:38;;;;;;;15.57;9.27;;;6.50;99.90;;;;;;4990860;28;20041;-81
2021/04/21 03:47:03;;;;;;;13.02;8.50;;;6.40;99.90;;;;;;4990265;28;20041;-80
2021/04/21 03:49:29;;;;;;;14.32;9.10;;;7.70;99.90;;;;;;4992196;28;20034;-80
2021/04/21 03:51:57;;;;;;;12.45;9.10;;;6.40;99.90;;;;;;4993280;28;20038;-81
2021/04/21 03:54:25;;;;;;;14.40;9.27;;;6.30;99.90;;;;;;4985244;28;20047;-84
2021/04/21 03:56:51;;;;;;;13.30;8.52;;;6.30;99.90;;;;;;4991228;28;20026;-81
2021/04/21 03:59:17;;;;;;;15.02;9.65;;;7.40;99.90;;;;;;4990900;28;20105;-82
2021/04/21 04:01:47;;;;;;;15.00;8.50;;;6.30;99.90;;;;;;5009347;28;20053;-81
2021/04/21 04:04:18;;;;;;;12.67;8.03;;;7.50;99.90;;;;;;5006515;28;20030;-84
2021/04/21 04:06:48;;;;;;;11.63;8.40;;;6.30;99.90;;;;;;4995237;28;20401;-82
2021/04/21 04:09:16;;;;;;;13.75;8.95;;;6.10;99.90;;;;;;4993541;28;20049;-81
2021/04/21 04:11:47;;;;;;;12.32;8.25;;;7.20;99.90;;;;;;4986995;28;20054;-80
2021/04/21 04:14:24;;;;;;;14.95;8.40;;;6.20;99.90;;;;;;4988965;28;20034;-81
2021/04/21 04:16:53;;;;;;;13.68;8.68;;;6.20;99.90;;;;;;4993244;28;20034;-81
2021/04/21 04:19:19;;;;;;;15.98;9.20;;;6.20;99.90;;;;;;5014224;28;20030;-81
2021/04/21 04:21:51;;;;;;;12.70;8.60;;;6.20;99.90;;;;;;4994810;28;20034;-80
2021/04/21 04:24:20;;;;;;;13.40;8.57;;;8.90;99.90;;;;;;4988941;28;20038;-82
2021/04/21 04:26:47;;;;;;;14.90;9.05;;;6.00;99.90;;;;;;4998764;28;20074;-76
2021/04/21 04:29:14;;;;;;;14.48;9.10;;;7.30;99.90;;;;;;4999879;28;20030;-80
2021/04/21 04:31:40;;;;;;;15.00;8.88;;;7.40;99.90;;;;;;4994039;28;20026;-81
2021/04/21 04:34:07;;;;;;;12.75;8.73;;;6.10;99.90;;;;;;4999945;28;20069;-83
2021/04/21 04:36:39;;;;;;;13.15;8.63;;;6.10;99.90;;;;;;4988666;28;20053;-80
2021/04/21 04:39:09;;;;;;;14.65;9.35;;;7.40;99.90;;;;;;4991078;28;20026;-80
2021/04/21 04:41:36;;;;;;;14.57;8.77;;;6.10;99.90;;;;;;4992949;28;20038;-80
2021/04/21 04:44:02;;;;;;;15.40;9.48;;;7.60;99.90;;;;;;4990705;28;20042;-80
2021/04/21 04:46:30;;;;;;;13.13;9.20;;;6.20;99.90;;;;;;4989607;28;20053;-78
2021/04/21 04:49:10;;;;;;;12.88;8.25;;;8.40;99.90;;;;;;4992803;28;20037;-80
2021/04/21 04:51:43;;;;;;;12.95;8.95;;;6.30;99.90;;;;;;4985976;28;20473;-80
2021/04/21 04:54:11;;;;;;;13.88;9.30;;;6.30;99.90;;;;;;4990462;28;20026;-82
2021/04/21 04:56:37;;;;;;;15.85;9.20;;;6.30;99.90;;;;;;4985805;28;20030;-77
2021/04/21 04:59:05;;;;;;;16.98;9.73;;;8.80;99.90;;;;;;4991043;28;20138;-80
2021/04/21 05:01:41;;;;;;;18.27;9.98;;;7.40;99.90;;;;;;4986681;28;20034;-82
2021/04/21 05:04:10;;;;;;;16.00;9.48;;;6.40;99.90;;;;;;4979811;28;20030;-81
2021/04/21 05:06:39;;;;;;;12.20;8.60;;;6.40;99.90;;;;;;4998133;28;20501;-79
2021/04/21 05:09:10;;;;;;;13.02;8.80;;;6.50;99.90;;;;;;4982414;28;20030;-80
2021/04/21 05:11:39;;;;;;;19.95;9.40;;;8.00;99.90;;;;;;4993491;28;20038;-77
2021/04/21 05:14:10;;;;;;;15.60;8.85;;;8.20;99.90;;;;;;4987286;28;20039;-79
2021/04/21 05:16:56;;;;;;;13.60;9.23;;;6.70;99.90;;;;;;4989091;28;20030;-80
2021/04/21 05:19:28;;;;;;;14.38;9.85;;;6.80;99.90;;;;;;4960424;28;20808;-82
2021/04/21 05:22:12;;;;;;;15.85;10.13;;;6.80;99.90;;;;;;4978877;28;20030;-81
2021/04/21 05:25:19;;;;;;;13.85;9.25;;;6.90;99.90;;;;;;4976540;28;20054;-81
2021/04/21 05:28:01;;;;;;;16.63;9.38;;;6.90;99.90;;;;;;4982472;28;20620;-79
2021/04/21 05:31:05;;;;;;;15.15;9.27;;;7.00;99.90;;;;;;4978687;28;20078;-80
2021/04/21 05:33:51;;;;;;;17.17;10.95;;;7.10;99.90;;;;;;4994845;28;20481;-80
2021/04/21 05:36:36;;;;;;;17.88;9.57;;;7.20;99.90;;;;;;4985029;28;20030;-80
2021/04/21 05:39:40;;;;;;;14.60;8.25;;;7.30;99.90;;;;;;4992810;28;20058;-81
2021/04/21 05:42:43;;;;;;;14.25;9.68;;;7.40;99.90;;;;;;5003679;28;22543;-79
2021/04/21 05:45:54;;;;;;;12.40;8.50;;;7.30;99.90;;;;;;4979794;28;23688;-78
2021/04/21 05:48:49;;;;;;;16.30;9.25;;;7.60;99.90;;;;;;5002462;28;20035;-80
2021/04/21 05:51:50;;;;;;;13.43;8.52;;;7.70;99.90;;;;;;4990758;28;20423;-79
2021/04/21 05:54:41;;;;;;;13.23;9.07;;;7.80;99.90;;;;;;4984365;28;20038;-79
2021/04/21 05:57:41;;;;;;;15.73;8.88;;;7.90;99.90;;;;;;5009858;28;20034;-81
2021/04/21 06:00:38;;;;;;;13.52;8.75;;;7.90;99.90;;;;;;4982571;28;20057;-82
2021/04/21 06:03:04;;;;;;;14.00;8.55;;;8.10;99.90;;;;;;4980996;28;20041;-82
2021/04/21 06:05:30;;;;;;;11.27;8.02;;;8.40;99.70;;;;;;4980419;28;20038;-79
2021/04/21 06:07:56;;;;;;;12.15;8.30;;;8.70;99.70;;;;;;4991704;28;20034;-80
2021/04/21 06:10:29;;;;;;;12.13;8.23;;;8.30;99.90;;;;;;4977952;28;20038;-80
2021/04/21 06:13:03;;;;;;;12.18;8.30;;;8.50;99.90;;;;;;4979258;28;20629;-79
2021/04/21 06:15:39;;;;;;;13.35;8.68;;;8.60;99.50;;;;;;4979662;28;20034;-78
2021/04/21 06:18:08;;;;;;;14.63;8.85;;;8.60;99.60;;;;;;4987680;28;20089;-82
2021/04/21 06:20:39;;;;;;;13.10;8.57;;;8.60;99.30;;;;;;4993928;28;20022;-78
2021/04/21 06:23:08;;;;;;;13.13;8.25;;;8.60;99.60;;;;;;4980668;28;20034;-77
2021/04/21 06:25:34;;;;;;;13.25;8.98;;;8.80;99.30;;;;;;4992189;28;20034;-80
2021/04/21 06:28:17;;;;;;;14.13;8.52;;;8.90;99.20;;;;;;4980452;28;20058;-77
2021/04/21 06:30:46;;;;;;;13.07;9.48;;;9.00;98.70;;;;;;4982931;28;20034;-81
2021/04/21 06:33:13;;;;;;;15.00;9.40;;;9.10;98.90;;;;;;4975988;28;20034;-84
2021/04/21 06:35:40;;;;;;;13.05;8.50;;;9.00;98.70;;;;;;4981317;28;20162;-82
2021/04/21 06:38:07;;;;;;;14.52;9.70;;;9.10;98.60;;;;;;4982483;28;20125;-79
2021/04/21 06:40:34;;;;;;;16.42;9.25;;;9.20;98.30;;;;;;4977113;28;20037;-82
2021/04/21 06:43:01;;;;;;;15.52;9.73;;;9.30;98.20;;;;;;4979678;28;20033;-79
2021/04/21 06:45:37;;;;;;;14.60;10.07;;;9.40;98.20;;;;;;4978144;28;20030;-82
2021/04/21 06:48:10;;;;;;;13.27;9.50;;;9.50;98.10;;;;;;4973950;28;20026;-78
2021/04/21 06:50:40;;;;;;;14.07;9.13;;;9.70;97.90;;;;;;4965122;28;20576;-80
2021/04/21 06:53:08;;;;;;;15.35;9.38;;;9.80;97.60;;;;;;4979709;28;20490;-83
2021/04/21 06:55:35;;;;;;;14.93;9.60;;;10.30;97.40;;;;;;4977728;28;20034;-81
2021/04/21 06:58:02;;;;;;;14.63;10.20;;;9.80;97.60;;;;;;4979181;28;20156;-81
2021/04/21 07:00:30;;;;;;;14.88;9.80;;;9.90;97.30;;;;;;4977908;28;20026;-80
2021/04/21 07:03:01;;;;;;;17.85;10.45;;;10.00;97.10;;;;;;4978982;28;20781;-79
2021/04/21 07:05:32;;;;;;;16.45;11.07;;;10.10;96.70;;;;;;4986255;28;20061;-79
2021/04/21 07:08:10;;;;;;;16.63;10.13;;;10.10;96.80;;;;;;4983733;28;20065;-79
2021/04/21 07:10:47;;;;;;;16.08;9.88;;;10.20;96.90;;;;;;4979513;28;20099;-82
2021/04/21 07:13:26;;;;;;;12.88;9.43;;;10.30;96.50;;;;;;4987545;28;20030;-79
2021/04/21 07:15:55;;;;;;;15.25;9.98;;;10.50;96.50;;;;;;4979029;28;20121;-80
2021/04/21 07:18:27;;;;;;;13.93;10.13;;;10.50;96.20;;;;;;4978039;28;20090;-79
2021/04/21 07:20:55;;;;;;;13.73;9.52;;;10.80;95.90;;;;;;4983605;28;20045;-82
2021/04/21 07:23:24;;;;;;;15.10;9.68;;;10.90;95.80;;;;;;4981996;28;20061;-80
2021/04/21 07:25:53;;;;;;;14.98;9.95;;;10.90;95.10;;;;;;4987637;28;20153;-82
2021/04/21 07:28:21;;;;;;;17.55;9.63;;;11.00;95.10;;;;;;4967884;28;20035;-80
2021/04/21 07:30:48;;;;;;;17.42;10.07;;;11.10;94.90;;;;;;4982512;28;20084;-81
2021/04/21 07:33:42;;;;;;;13.05;9.60;;;11.20;94.60;;;;;;4976278;28;20038;-81
2021/04/21 07:36:19;;;;;;;17.13;9.88;;;11.30;94.30;;;;;;4999693;28;20026;-83
2021/04/21 07:38:50;;;;;;;16.05;9.88;;;11.60;94.00;;;;;;4987111;28;20062;-82
2021/04/21 07:41:38;;;;;;;13.98;9.27;;;11.80;93.40;;;;;;4988106;28;20503;-81
2021/04/21 07:44:06;;;;;;;16.25;10.90;;;12.00;92.90;;;;;;4984979;28;20389;-84
2021/04/21 07:46:34;;;;;;;15.48;9.45;;;12.20;92.50;;;;;;4986407;28;20043;-81
2021/04/21 07:49:08;;;;;;;16.30;10.77;;;12.30;92.60;;;;;;4985538;28;20022;-78
2021/04/21 07:51:37;;;;;;;19.13;10.93;;;12.40;92.10;;;;;;4983959;28;20077;-78
2021/04/21 07:54:17;;;;;;;17.65;10.35;;;13.10;92.00;;;;;;4986834;28;20515;-81
2021/04/21 07:56:52;;;;;;;15.57;10.57;;;12.70;91.30;;;;;;4968295;28;20035;-79
2021/04/21 07:59:26;;;;;;;14.05;10.32;;;13.10;90.60;;;;;;4986954;28;20066;-79
2021/04/21 08:01:53;;;;;;;18.90;9.98;;;13.20;90.20;;;;;;4979205;28;20039;-79
2021/04/21 08:04:25;;;;;;;14.85;10.27;;;13.20;89.20;;;;;;4983239;28;20061;-79
2021/04/21 08:06:57;;;;;;;12.65;9.43;;;13.30;88.70;;;;;;4981571;28;20030;-81
2021/04/21 08:09:33;;;;;;;14.70;10.45;;;13.50;89.30;;;;;;4988915;28;20901;-79
2021/04/21 08:12:12;;;;;;;15.07;10.05;;;13.50;87.30;;;;;;4984338;28;20158;-82
2021/04/21 08:14:46;;;;;;;17.20;9.57;;;13.50;87.50;;;;;;4976852;28;20129;-81
2021/04/21 08:17:14;;;;;;;18.23;10.20;;;13.50;87.80;;;;;;4977117;28;20337;-81
2021/04/21 08:19:45;;;;;;;14.10;9.60;;;13.60;87.50;;;;;;4977143;28;20077;-82
2021/04/21 08:22:12;;;;;;;15.65;10.10;;;13.50;86.80;;;;;;4980835;28;20034;-78
2021/04/21 08:24:44;;;;;;;15.70;10.10;;;13.60;87.30;;;;;;4996464;28;20030;-80
2021/04/21 08:27:12;;;;;;;16.33;10.25;;;13.60;87.60;;;;;;4985110;28;20049;-78
2021/04/21 08:29:38;;;;;;;15.27;10.13;;;13.80;86.90;;;;;;4976233;28;20030;-81
2021/04/21 08:32:05;;;;;;;15.32;9.75;;;14.00;85.20;;;;;;4997740;28;20552;-81
2021/04/21 08:34:31;;;;;;;13.13;9.20;;;14.40;83.00;;;;;;4984937;28;20101;-82
2021/04/21 08:36:57;;;;;;;12.77;8.70;;;14.60;81.60;;;;;;4988184;28;20026;-79
2021/04/21 08:39:22;;;;;;;11.73;8.43;;;15.00;80.80;;;;;;4982922;28;20637;-81
2021/04/21 08:41:53;;;;;;;13.80;8.32;;;15.30;79.40;;;;;;4993782;28;20480;-79
2021/04/21 08:44:19;;;;;;;13.40;8.57;;;15.60;77.80;;;;;;4976001;28;20054;-82
2021/04/21 08:46:45;;;;;;;11.85;7.88;;;15.90;76.10;;;;;;4988554;28;20058;-83
2021/04/21 08:49:11;;;;;;;12.70;7.60;;;16.20;72.90;;;;;;4968499;28;20018;-84
2021/04/21 08:51:39;;;;;;;11.75;7.18;;;16.50;70.40;;;;;;4979671;28;20559;-80
2021/04/21 08:54:07;;;;;;;10.55;7.00;;;16.80;68.80;;;;;;4994347;28;20046;-81
2021/04/21 08:56:37;;;;;;;12.60;7.63;;;17.00;67.30;;;;;;4979909;28;20386;-82
2021/04/21 08:59:07;;;;;;;13.85;8.48;;;17.00;63.80;;;;;;5005048;28;20030;-80
2021/04/21 09:01:32;;;;;;;13.18;7.90;;;17.20;62.70;;;;;;4989858;28;20065;-82
2021/04/21 09:03:58;;;;;;;13.82;8.20;;;17.10;60.30;;;;;;4980816;28;20472;-81
2021/04/21 09:06:24;;;;;;;12.07;7.95;;;17.50;61.90;;;;;;4988030;28;20065;-81
2021/04/21 09:08:55;;;;;;;9.25;7.10;;;17.50;57.30;;;;;;4975163;28;21285;-80
2021/04/21 09:11:21;;;;;;;12.88;6.63;;;17.80;56.80;;;;;;4983257;28;20465;-82
2021/04/21 09:13:48;;;;;;;8.45;6.07;;;18.00;53.90;;;;;;5004672;28;20121;-81
2021/04/21 09:16:14;;;;;;;11.10;6.72;;;18.00;52.70;;;;;;4993772;28;20042;-83
2021/04/21 09:18:40;;;;;;;10.07;6.43;;;18.00;50.70;;;;;;4980709;28;20034;-83
2021/04/21 09:21:16;;;;;;;9.75;5.85;;;18.00;49.80;;;;;;4983056;28;20034;-80
2021/04/21 09:23:42;;;;;;;7.93;5.13;;;18.10;50.50;;;;;;4990840;28;20130;-82
2021/04/21 09:26:23;;;;;;;8.35;5.90;;;18.20;48.60;;;;;;4986755;28;20026;-82
2021/04/21 09:28:53;;;;;;;7.70;5.20;;;18.20;48.10;;;;;;4970588;28;20030;-82
2021/04/21 09:31:21;;;;;;;7.68;5.45;;;18.20;48.10;;;;;;4986308;28;20030;-81
2021/04/21 09:33:48;;;;;;;9.35;5.78;;;18.10;48.30;;;;;;4986273;28;20058;-81
2021/04/21 09:36:36;;;;;;;8.85;5.63;;;17.80;47.50;;;;;;4982034;28;20031;-78
2021/04/21 09:39:07;;;;;;;7.45;5.20;;;18.10;47.70;;;;;;4984212;28;20038;-83
2021/04/21 09:41:33;;;;;;;10.60;6.78;;;18.20;47.80;;;;;;5002167;28;20223;-81
2021/04/21 09:44:20;;;;;;;10.02;6.47;;;18.30;47.30;;;;;;4989507;28;20015;-80
2021/04/21 09:46:48;;;;;;;9.18;6.13;;;18.40;47.00;;;;;;4985332;28;20042;-81
2021/04/21 09:49:41;;;;;;;10.68;6.18;;;18.40;48.10;;;;;;4985395;28;20034;-82
2021/04/21 09:52:12;;;;;;;8.55;5.85;;;18.60;47.90;;;;;;4993793;28;20519;-82
2021/04/21 09:54:42;;;;;;;9.27;5.90;;;18.70;47.60;;;;;;4982026;28;20042;-80
2021/04/21 09:57:09;;;;;;;8.38;5.13;;;19.10;46.40;;;;;;4990307;28;20026;-80
2021/04/21 09:59:36;;;;;;;7.00;4.93;;;19.00;45.80;;;;;;4990043;28;20049;-80
2021/04/21 10:02:02;;;;;;;7.72;5.30;;;19.10;44.50;;;;;;4985229;28;20026;-77
2021/04/21 10:04:29;;;;;;;9.23;6.05;;;19.20;44.70;;;;;;4993765;28;20037;-79
2021/04/21 10:06:57;;;;;;;7.13;4.95;;;19.20;44.70;;;;;;4984329;28;20038;-83
2021/04/21 10:09:31;;;;;;;8.80;5.43;;;19.10;45.10;;;;;;4986400;28;20120;-83
2021/04/21 10:12:24;;;;;;;9.27;5.63;;;18.90;45.60;;;;;;4994094;28;20163;-83
2021/04/21 10:15:11;;;;;;;8.23;5.32;;;19.20;44.80;;;;;;4992987;28;20035;-81
2021/04/21 10:17:41;;;;;;;7.93;4.80;;;19.40;44.50;;;;;;4983885;28;20037;-82
2021/04/21 10:20:16;;;;;;;7.55;5.50;;;19.60;44.30;;;;;;4984139;28;20028;-82
2021/04/21 10:22:45;;;;;;;8.93;5.45;;;19.80;44.60;;;;;;4986341;28;20121;-81
2021/04/21 10:25:13;;;;;;;6.60;4.87;;;19.90;42.90;;;;;;4994082;28;20065;-80
2021/04/21 10:27:38;;;;;;;7.75;5.15;;;19.90;43.10;;;;;;4989499;28;20503;-77
2021/04/21 10:30:07;;;;;;;7.80;5.57;;;19.80;43.10;;;;;;4991195;28;20061;-80
2021/04/21 10:32:34;;;;;;;7.65;5.00;;;19.70;42.90;;;;;;4986205;28;20022;-79
2021/04/21 10:35:03;;;;;;;10.23;6.00;;;19.40;43.60;;;;;;4987020;28;20505;-80
2021/04/21 10:37:36;;;;;;;9.02;5.18;;;19.00;44.40;;;;;;4990170;28;20030;-81
2021/04/21 10:40:04;;;;;;;9.23;5.15;;;18.80;44.50;;;;;;4991278;28;20493;-79
2021/04/21 10:42:47;;;;;;;6.25;4.57;;;18.50;45.00;;;;;;4982970;28;20509;-77
2021/04/21 10:45:15;;;;;;;6.35;4.70;;;18.40;45.90;;;;;;4982256;28;20030;-82
2021/04/21 10:47:46;;;;;;;7.22;4.97;;;18.30;45.30;;;;;;4982630;28;20041;-78
2021/04/21 10:50:14;;;;;;;7.18;5.03;;;18.20;45.30;;;;;;4993655;28;20030;-80
2021/04/21 10:52:42;;;;;;;6.82;4.75;;;18.10;46.20;;;;;;5001568;28;20041;-77
2021/04/21 10:55:08;;;;;;;7.55;4.90;;;18.10;45.00;;;;;;4983276;28;20026;-79
2021/04/21 10:57:36;;;;;;;6.40;4.78;;;17.90;45.40;;;;;;4984439;28;20034;-78
2021/04/21 11:00:18;;;;;;;6.70;5.07;;;18.10;46.30;;;;;;4984079;28;20026;-76
2021/04/21 11:02:49;;;;;;;8.32;5.00;;;17.80;45.70;;;;;;4987116;28;20023;-79
2021/04/21 11:05:20;;;;;;;7.00;4.28;;;17.90;46.20;;;;;;4986837;28;20084;-79
2021/04/21 11:07:55;;;;;;;6.80;4.40;;;17.90;45.80;;;;;;5003397;28;20030;-78
2021/04/21 11:10:35;;;;;;;6.00;4.43;;;18.00;45.20;;;;;;4971805;28;20489;-79
2021/04/21 11:13:01;;;;;;;5.53;4.20;;;18.00;44.70;;;;;;4987350;28;20030;-77
2021/04/21 11:15:43;;;;;;;6.28;3.92;;;18.00;45.30;;;;;;4972684;28;20418;-80
2021/04/21 11:18:12;;;;;;;5.72;3.97;;;18.10;45.10;;;;;;4992834;28;20118;-77
2021/04/21 11:20:47;;;;;;;8.02;4.90;;;18.10;44.80;;;;;;4998983;28;20441;-77
2021/04/21 11:26:28;;;;;;;6.07;4.72;;;18.40;45.30;;;;;;4980707;28;20038;-78
2021/04/21 11:29:13;;;;;;;6.30;4.32;;;18.40;45.20;;;;;;4984462;28;20030;-80
2021/04/21 11:31:41;;;;;;;6.78;4.45;;;18.40;46.10;;;;;;4993991;28;21436;-82
2021/04/21 11:34:22;;;;;;;7.47;4.93;;;18.40;45.40;;;;;;4981371;28;20034;-81
2021/04/21 11:37:01;;;;;;;;;;;18.30;44.60;;;;;;4984305;28;20030;-79
2021/04/21 11:39:45;;;;;;;5.55;4.20;;;18.30;45.40;;;;;;4985008;28;20484;-80
2021/04/21 11:42:30;;;;;;;6.95;4.18;;;18.50;45.50;;;;;;4983825;28;20079;-82
2021/04/21 11:45:16;;;;;;;6.82;4.60;;;18.40;45.10;;;;;;4976287;28;20505;-81
2021/04/21 11:47:46;;;;;;;7.45;3.72;;;18.50;44.20;;;;;;4980628;28;20029;-80
2021/04/21 11:50:18;;;;;;;7.15;4.25;;;18.60;44.60;;;;;;4990051;28;20053;-81
2021/04/21 11:52:56;;;;;;;5.53;4.10;;;18.80;44.10;;;;;;4984201;28;20425;-80
2021/04/21 11:55:32;;;;;;;5.70;4.32;;;18.90;44.00;;;;;;4987200;28;20053;-79
2021/04/21 11:58:12;;;;;;;6.65;3.90;;;19.00;43.70;;;;;;4983686;28;21402;-78
2021/04/21 12:00:38;;;;;;;7.15;4.47;;;19.00;42.80;;;;;;4981740;28;20031;-76
2021/04/21 12:03:06;;;;;;;7.35;4.53;;;18.90;43.10;;;;;;4992062;28;20031;-77
2021/04/21 12:05:36;;;;;;;10.48;4.20;;;18.70;43.10;;;;;;4979488;28;20552;-79
2021/04/21 12:08:04;;;;;;;4.57;3.70;;;18.60;43.40;;;;;;4984930;28;20496;-78
2021/04/21 12:10:34;;;;;;;6.40;4.30;;;18.60;43.40;;;;;;4979466;28;20046;-78
2021/04/21 12:13:15;;;;;;;;;;;18.70;43.20;;;;;;4983069;28;20018;-81
2021/04/21 12:15:41;;;;;;;7.07;4.45;;;18.80;43.20;;;;;;4978245;28;19936;-79
2021/04/21 12:18:07;;;;;;;6.00;4.03;;;18.90;43.40;;;;;;4982610;28;20022;-80
2021/04/21 12:20:36;;;;;;;5.53;3.95;;;19.00;42.70;;;;;;4979752;28;20049;-81
2021/04/21 12:23:03;;;;;;;7.18;4.68;;;19.40;42.80;;;;;;4985060;28;20114;-80
2021/04/21 12:25:30;;;;;;;5.85;4.38;;;19.80;43.70;;;;;;4983119;28;20035;-80
2021/04/21 12:27:59;;;;;;;5.93;4.55;;;20.20;43.60;;;;;;4966220;28;20046;-80
2021/04/21 12:30:29;;;;;;;8.68;5.13;;;20.40;43.20;;;;;;4977240;28;20469;-80
2021/04/21 12:32:55;;;;;;;;;;;20.70;42.70;;;;;;4977071;28;20092;-81
2021/04/21 12:35:25;;;;;;;7.72;5.25;;;20.80;42.80;;;;;;4975013;28;19960;-80
2021/04/21 12:37:58;;;;;;;7.13;4.53;;;20.60;41.40;;;;;;4980308;28;20027;-79
2021/04/21 12:40:31;;;;;;;8.73;5.25;;;20.10;43.30;;;;;;4984856;28;20838;-77
2021/04/21 12:43:15;;;;;;;7.10;4.82;;;19.80;44.60;;;;;;4985987;28;20022;-79
2021/04/21 12:45:42;;;;;;;7.68;4.32;;;19.50;45.60;;;;;;4996944;28;20417;-75
2021/04/21 12:48:27;;;;;;;7.10;5.07;;;19.30;46.00;;;;;;4988209;28;20034;-81
2021/04/21 12:50:55;;;;;;;9.57;5.80;;;19.00;45.50;;;;;;4986996;28;20034;-81
2021/04/21 12:53:23;;;;;;;6.60;4.40;;;18.90;44.90;;;;;;5000325;28;20208;-82
2021/04/21 12:56:06;;;;;;;6.57;4.78;;;18.70;47.00;;;;;;4980847;28;20018;-81
2021/04/21 12:58:37;;;;;;;9.48;5.18;;;18.60;46.80;;;;;;4990006;28;20025;-84
2021/04/21 13:01:21;;;;;;;6.68;4.82;;;18.60;47.60;;;;;;4976291;28;20056;-80
2021/04/21 13:04:02;;;;;;;8.98;5.00;;;18.60;47.20;;;;;;4984785;28;20424;-84
2021/04/21 13:06:39;;;;;;;10.90;5.40;;;18.90;46.10;;;;;;4985110;28;20061;-82
2021/04/21 13:09:06;;;;;;;6.57;4.90;;;19.40;44.80;;;;;;4983459;28;20030;-83
2021/04/21 13:11:32;;;;;;;5.95;4.78;;;19.50;42.90;;;;;;4999817;28;20045;-81
2021/04/21 13:14:01;;;;;;;6.13;4.90;;;19.70;43.20;;;;;;4984130;28;20019;-80
2021/04/21 13:16:28;;;;;;;7.17;4.80;;;19.90;43.70;;;;;;4991485;28;20041;-81
2021/04/21 13:18:55;;;;;;;7.18;5.00;;;20.50;43.70;;;;;;4987449;28;20022;-84
2021/04/21 13:21:21;;;;;;;8.07;5.10;;;20.30;43.00;;;;;;4991692;28;20117;-81